Time;durP1;ratioP1;P1;durP2;ratioP2;P2;SDS_P1;SDS_P2;PMS_P1;PMS_P2;Temp;Humidity;BMP_temperature;BMP_pressure;BME280_temperature;BME280_humidity;BME280_pressure;Samples;Min_cycle;Max_cycle;Signal;HPM_P1;HPM_P2
2023/03/08 00:03:29;;;;;;;10.10;4.97;;;;;;;3.44;52.70;96012.28;10475231;28;20063;-77
2023/03/08 00:08:57;;;;;;;9.07;4.80;;;;;;;3.38;52.79;96025.66;10475059;28;20524;-77
2023/03/08 00:14:21;;;;;;;8.30;4.75;;;;;;;3.31;53.39;96042.38;10447828;28;20067;-77
2023/03/08 00:19:42;;;;;;;9.50;4.60;;;;;;;3.27;53.94;96064.16;10475246;28;20405;-77
2023/03/08 00:25:04;;;;;;;9.75;4.93;;;;;;;3.28;53.72;96074.63;10487934;28;20483;-77
2023/03/08 00:30:26;;;;;;;9.65;5.55;;;;;;;3.39;53.66;96062.25;10460143;28;20368;-77
2023/03/08 00:35:58;;;;;;;9.90;5.05;;;;;;;3.65;54.66;96079.81;10474279;28;20051;-77
2023/03/08 00:41:19;;;;;;;8.18;4.88;;;;;;;3.78;53.99;96078.63;10473424;28;20041;-78
2023/03/08 00:46:40;;;;;;;10.75;5.47;;;;;;;3.90;54.68;96082.19;10473403;28;20107;-77
2023/03/08 00:52:01;;;;;;;7.60;4.85;;;;;;;3.82;55.08;96076.13;10459235;28;20044;-77
2023/03/08 00:57:22;;;;;;;8.07;5.35;;;;;;;3.87;55.99;96091.66;10458941;28;20049;-77
2023/03/08 01:02:43;;;;;;;8.20;5.00;;;;;;;3.95;55.60;96094.91;10457418;28;20111;-77
2023/03/08 01:08:04;;;;;;;9.00;5.70;;;;;;;4.00;55.64;96099.41;10472619;28;20036;-77
2023/03/08 01:13:28;;;;;;;10.38;5.32;;;;;;;4.02;56.05;96100.25;10471933;28;20041;-77
2023/03/08 01:18:49;;;;;;;;;;;;;;;4.02;57.47;96096.78;10472527;28;20048;-77
2023/03/08 01:24:12;;;;;;;9.70;6.25;;;;;;;4.03;57.10;96100.97;10472201;28;19920;-78
2023/03/08 01:29:33;;;;;;;8.52;5.68;;;;;;;4.02;57.43;96107.81;10457645;28;20102;-77
2023/03/08 01:34:55;;;;;;;7.93;5.45;;;;;;;4.02;56.92;96096.78;10469510;28;20482;-77
2023/03/08 01:40:15;;;;;;;8.93;5.47;;;;;;;4.06;58.09;96090.81;10474600;28;20391;-78
2023/03/08 01:46:14;;;;;;;9.82;5.68;;;;;;;4.06;58.03;96094.31;10490252;28;20043;-77
2023/03/08 01:51:52;;;;;;;11.10;6.18;;;;;;;4.07;58.45;96109.53;10487394;28;20040;-77
2023/03/08 01:57:23;;;;;;;10.45;6.38;;;;;;;4.11;58.61;96098.75;10501562;28;20040;-77
2023/03/08 02:02:56;;;;;;;11.20;6.00;;;;;;;4.13;58.73;96100.91;10489649;28;20052;-77
2023/03/08 02:08:17;;;;;;;10.98;5.95;;;;;;;4.16;58.51;96097.72;10479309;28;20471;-77
2023/03/08 02:13:38;;;;;;;11.18;6.13;;;;;;;4.21;59.15;96091.13;10499600;28;20493;-78
2023/03/08 02:19:02;;;;;;;10.15;6.85;;;;;;;4.23;59.14;96105.06;10488891;28;20044;-77
2023/03/08 02:24:24;;;;;;;11.05;6.10;;;;;;;4.25;59.11;96121.06;10495748;28;20098;-78
2023/03/08 02:29:44;;;;;;;10.90;5.55;;;;;;;4.30;59.04;96125.53;10461097;28;20040;-77
2023/03/08 02:35:05;;;;;;;8.80;5.05;;;;;;;4.32;58.60;96112.56;10481923;28;20048;-77
2023/03/08 02:40:26;;;;;;;10.98;6.63;;;;;;;4.37;58.41;96115.59;10469186;28;20041;-77
2023/03/08 02:45:47;;;;;;;9.30;5.80;;;;;;;4.43;58.48;96121.50;10455149;28;20036;-77
2023/03/08 02:51:08;;;;;;;8.25;5.53;;;;;;;4.38;58.24;96115.00;10469282;28;20115;-77
2023/03/08 02:56:29;;;;;;;9.20;5.03;;;;;;;4.28;58.64;96128.88;10473622;28;20040;-78
2023/03/08 03:01:50;;;;;;;8.32;5.25;;;;;;;4.33;58.19;96121.56;10474272;28;20533;-78
2023/03/08 03:07:11;;;;;;;7.03;4.55;;;;;;;4.38;58.32;96120.53;10473984;28;20131;-78
2023/03/08 03:12:32;;;;;;;10.10;5.13;;;;;;;4.41;58.40;96130.38;10468837;28;20519;-78
2023/03/08 03:17:53;;;;;;;8.05;5.38;;;;;;;4.42;58.50;96142.16;10488606;28;20047;-77
2023/03/08 03:23:15;;;;;;;8.40;5.07;;;;;;;4.42;59.10;96147.69;10472429;28;20139;-77
2023/03/08 03:28:43;;;;;;;7.63;4.25;;;;;;;4.39;59.08;96144.09;10473002;28;20040;-78
2023/03/08 03:34:05;;;;;;;9.20;4.18;;;;;;;4.33;59.38;96146.44;10481080;28;20028;-78
2023/03/08 03:39:25;;;;;;;5.90;3.60;;;;;;;4.34;59.57;96152.69;10480492;28;20048;-77
2023/03/08 03:44:46;;;;;;;5.57;3.42;;;;;;;4.31;59.72;96160.84;10492303;28;20040;-78
2023/03/08 03:50:12;;;;;;;5.30;3.45;;;;;;;4.31;59.80;96166.38;10517677;28;20374;-78
2023/03/08 03:55:46;;;;;;;7.03;4.25;;;;;;;4.30;59.66;96180.78;10496395;28;20486;-77
2023/03/08 04:01:15;;;;;;;6.70;4.10;;;;;;;4.32;59.73;96180.91;10471159;28;20043;-78
2023/03/08 04:06:37;;;;;;;5.20;3.03;;;;;;;4.29;59.94;96193.13;10482857;28;20044;-78
2023/03/08 04:12:01;;;;;;;3.08;1.65;;;;;;;4.28;59.71;96188.94;10470221;28;20393;-78
2023/03/08 04:17:23;;;;;;;2.43;1.30;;;;;;;4.22;59.48;96180.97;10480867;28;20074;-77
2023/03/08 04:22:47;;;;;;;1.50;0.80;;;;;;;4.19;59.30;96173.84;10481129;28;20042;-78
2023/03/08 04:28:14;;;;;;;1.77;0.80;;;;;;;4.15;59.44;96181.13;10499655;28;20085;-78
2023/03/08 04:33:36;;;;;;;1.55;0.98;;;;;;;3.98;59.95;96188.34;10465818;28;20048;-78
2023/03/08 04:38:57;;;;;;;5.00;1.05;;;;;;;4.01;59.78;96189.22;10516668;28;20048;-78
2023/03/08 04:44:19;;;;;;;2.72;1.00;;;;;;;4.02;59.56;96179.59;10465350;28;20039;-78
2023/03/08 04:49:43;;;;;;;1.48;0.60;;;;;;;3.96;59.35;96171.66;10472196;28;20058;-78
2023/03/08 04:55:06;;;;;;;1.70;0.80;;;;;;;3.98;59.85;96184.88;10470510;28;20851;-78
2023/03/08 05:00:29;;;;;;;0.90;0.40;;;;;;;3.99;59.72;96191.84;10483038;28;20089;-78
2023/03/08 05:05:53;;;;;;;1.70;0.60;;;;;;;4.01;59.82;96189.22;10493381;28;20051;-77
2023/03/08 05:11:20;;;;;;;1.23;0.67;;;;;;;4.02;59.69;96179.59;10492197;28;20040;-79
2023/03/08 05:16:41;;;;;;;1.13;0.70;;;;;;;4.05;59.38;96180.47;10482492;28;20047;-78
2023/03/08 05:22:04;;;;;;;2.75;0.73;;;;;;;4.05;59.39;96186.72;10471749;28;20064;-78
2023/03/08 05:27:31;;;;;;;1.90;0.60;;;;;;;4.07;59.93;96186.13;10480767;28;20485;-78
2023/03/08 05:32:53;;;;;;;1.42;0.50;;;;;;;4.09;59.51;96186.28;10480639;28;20035;-78
2023/03/08 05:38:15;;;;;;;1.02;0.70;;;;;;;4.10;59.26;96191.19;10480883;28;20119;-78
2023/03/08 05:43:37;;;;;;;1.55;0.60;;;;;;;4.02;59.70;96193.41;10490567;28;20036;-78
2023/03/08 05:49:00;;;;;;;5.47;0.70;;;;;;;4.05;59.44;96203.28;10480657;28;20089;-78
2023/03/08 05:54:25;;;;;;;3.38;0.85;;;;;;;4.02;59.46;96204.47;10472429;28;20039;-78
2023/03/08 05:59:50;;;;;;;3.00;0.90;;;;;;;4.07;59.37;96206.19;10479950;28;20052;-77
2023/03/08 06:05:14;;;;;;;2.45;0.90;;;;;;;4.27;59.59;96212.34;10504346;28;20043;-78
2023/03/08 06:10:38;;;;;;;5.47;1.25;;;;;;;4.37;59.74;96212.28;10482530;28;20482;-78
2023/03/08 06:16:00;;;;;;;3.35;1.00;;;;;;;4.38;59.33;96208.22;10495844;28;20041;-78
2023/03/08 06:21:23;;;;;;;6.37;2.60;;;;;;;4.41;59.09;96209.78;10503006;28;20040;-78
2023/03/08 06:26:52;;;;;;;6.85;2.85;;;;;;;4.48;58.67;96208.88;10485243;28;20098;-78
2023/03/08 06:32:14;;;;;;;7.35;4.13;;;;;;;4.69;58.71;96203.34;10488110;28;20040;-78
2023/03/08 06:37:35;;;;;;;9.30;5.03;;;;;;;5.01;57.96;96192.94;10494692;28;20036;-77
2023/03/08 06:43:00;;;;;;;10.25;5.72;;;;;;;5.57;56.77;96186.72;10498173;28;20128;-78
2023/03/08 06:48:21;;;;;;;9.48;5.20;;;;;;;6.20;55.84;96196.81;10489903;28;20036;-77
2023/03/08 06:53:44;;;;;;;11.65;5.93;;;;;;;6.17;53.94;96200.78;10497347;28;20043;-78
2023/03/08 06:59:09;;;;;;;11.27;5.32;;;;;;;6.19;52.85;96208.50;10499900;28;20403;-77
2023/03/08 07:04:30;;;;;;;8.90;5.25;;;;;;;6.02;53.71;96202.00;10505321;28;20406;-76
2023/03/08 07:09:51;;;;;;;8.23;5.35;;;;;;;5.89;53.40;96191.50;10505159;28;20097;-77
2023/03/08 07:15:13;;;;;;;9.18;5.43;;;;;;;5.88;52.96;96192.78;10505903;28;20044;-77
2023/03/08 07:20:34;;;;;;;9.25;5.45;;;;;;;5.88;52.17;96192.78;10520810;28;20097;-76
2023/03/08 07:25:55;;;;;;;10.82;5.30;;;;;;;5.78;51.96;96203.25;10506723;28;20470;-77
2023/03/08 07:31:16;;;;;;;9.82;5.68;;;;;;;6.03;52.04;96197.19;10490704;28;20527;-77
2023/03/08 07:36:38;;;;;;;7.78;5.35;;;;;;;6.41;51.19;96200.78;10497460;28;20497;-77
2023/03/08 07:42:00;;;;;;;8.02;5.38;;;;;;;6.80;49.91;96209.28;10486435;28;20040;-77
2023/03/08 07:47:21;;;;;;;9.18;5.20;;;;;;;6.46;49.56;96230.88;10488751;28;20040;-77
2023/03/08 07:52:42;;;;;;;10.50;5.65;;;;;;;6.17;49.69;96216.69;10482057;28;20051;-76
2023/03/08 07:58:03;;;;;;;12.85;5.68;;;;;;;6.31;49.50;96212.72;10485949;28;20106;-76
2023/03/08 08:03:24;;;;;;;8.68;5.65;;;;;;;6.97;48.72;96217.19;10495383;28;20059;-77
2023/03/08 08:08:45;;;;;;;8.05;5.38;;;;;;;7.29;46.40;96225.88;10461029;28;20074;-76
2023/03/08 08:14:06;;;;;;;9.00;6.20;;;;;;;7.56;46.02;96214.91;10460229;28;20044;-77
2023/03/08 08:19:28;;;;;;;10.13;5.85;;;;;;;8.97;46.87;96222.13;10479118;28;20049;-77
2023/03/08 08:24:49;;;;;;;10.18;5.90;;;;;;;10.71;43.05;96239.88;10477301;28;20044;-77
2023/03/08 08:36:11;;;;;;;9.88;5.57;;;;;;;13.43;37.08;96208.13;10484601;28;20125;-78
2023/03/08 08:41:32;;;;;;;8.75;5.53;;;;;;;14.28;35.49;96189.59;10461288;28;20040;-77
2023/03/08 08:46:53;;;;;;;7.20;5.35;;;;;;;14.21;33.59;96180.31;10474231;28;20470;-77
2023/03/08 08:52:13;;;;;;;8.82;5.82;;;;;;;13.57;33.85;96193.84;10448350;28;20094;-78
2023/03/08 08:57:35;;;;;;;10.50;6.18;;;;;;;14.35;32.68;96194.03;10462150;28;20040;-77
2023/03/08 09:02:56;;;;;;;9.02;5.97;;;;;;;12.77;32.66;96190.53;10514931;28;20678;-77
2023/03/08 09:08:17;;;;;;;9.02;6.00;;;;;;;11.43;33.65;96180.00;10502042;28;20481;-76
2023/03/08 09:13:40;;;;;;;9.15;6.00;;;;;;;10.75;34.96;96173.81;10514672;28;20048;-78
2023/03/08 09:19:02;;;;;;;11.00;5.85;;;;;;;10.23;35.39;96177.84;10501389;28;20050;-78
2023/03/08 09:24:23;;;;;;;10.55;6.38;;;;;;;9.82;36.19;96153.72;10493741;28;20040;-78
2023/03/08 09:29:44;;;;;;;9.48;5.97;;;;;;;9.68;36.61;96162.19;10461220;28;20477;-78
2023/03/08 09:35:05;;;;;;;9.18;6.32;;;;;;;9.60;36.62;96149.94;10514023;28;20089;-78
2023/03/08 09:40:27;;;;;;;11.30;5.68;;;;;;;9.00;37.52;96143.00;10512122;28;20051;-77
2023/03/08 09:45:51;;;;;;;8.10;5.35;;;;;;;8.95;38.22;96141.34;10498534;28;20393;-78
2023/03/08 09:51:12;;;;;;;9.68;5.53;;;;;;;8.76;38.46;96140.47;10513651;28;20044;-77
2023/03/08 09:56:47;;;;;;;9.52;5.35;;;;;;;8.68;39.13;96120.59;10513106;28;20371;-77
2023/03/08 10:02:21;;;;;;;7.60;5.15;;;;;;;8.69;39.57;96127.63;10498384;28;20458;-76
2023/03/08 10:08:11;;;;;;;8.93;5.68;;;;;;;8.56;40.06;96104.03;10512094;28;20047;-75
2023/03/08 10:13:36;;;;;;;9.52;5.88;;;;;;;8.40;40.14;96102.53;10480635;28;20044;-76
2023/03/08 10:19:05;;;;;;;12.55;5.32;;;;;;;8.06;41.54;96093.16;10479999;28;20070;-76
2023/03/08 10:24:47;;;;;;;8.70;5.57;;;;;;;7.96;42.19;96093.38;10507760;28;20037;-76
2023/03/08 10:30:14;;;;;;;9.23;5.32;;;;;;;8.01;42.57;96081.84;10492860;28;20067;-78
2023/03/08 10:35:57;;;;;;;7.55;5.03;;;;;;;8.27;42.95;96065.75;10491632;28;20040;-77
2023/03/08 10:41:18;;;;;;;10.52;5.82;;;;;;;8.44;42.54;96074.91;10514471;28;20047;-76
2023/03/08 10:46:49;;;;;;;7.75;5.00;;;;;;;8.49;42.99;96071.72;10496897;28;20048;-76
2023/03/08 10:52:25;;;;;;;8.55;5.28;;;;;;;8.34;42.96;96061.22;10496838;28;20044;-78
2023/03/08 10:57:56;;;;;;;7.30;5.25;;;;;;;8.27;43.47;96051.13;10504237;28;20074;-76
2023/03/08 11:03:19;;;;;;;9.55;5.20;;;;;;;8.23;43.69;96037.03;10496341;28;20127;-77
2023/03/08 11:08:58;;;;;;;8.90;5.03;;;;;;;8.34;43.66;96027.84;10508528;28;20442;-78
2023/03/08 11:14:19;;;;;;;8.93;4.57;;;;;;;8.35;43.61;96012.63;10469839;28;20036;-78
2023/03/08 11:20:09;;;;;;;8.85;4.88;;;;;;;8.57;43.06;96004.63;10454828;28;20086;-78
2023/03/08 11:25:44;;;;;;;8.48;5.13;;;;;;;8.40;43.44;95999.66;10439897;28;20048;-77
2023/03/08 11:31:41;;;;;;;9.25;5.10;;;;;;;8.25;43.67;95984.31;10455328;28;20048;-76
2023/03/08 11:37:11;;;;;;;9.60;4.90;;;;;;;7.97;44.09;95973.28;10465417;28;20044;-77
2023/03/08 11:42:53;;;;;;;10.55;4.60;;;;;;;7.78;44.84;95982.03;10499828;28;20093;-79
2023/03/08 11:48:42;;;;;;;6.80;4.78;;;;;;;7.52;45.84;95970.31;10503996;28;20456;-77
2023/03/08 11:54:10;;;;;;;9.80;5.47;;;;;;;7.57;46.17;95952.53;10492439;28;20142;-78
2023/03/08 11:59:36;;;;;;;9.68;5.68;;;;;;;7.56;45.93;95942.78;10493474;28;20096;-76
2023/03/08 12:05:20;;;;;;;9.13;5.50;;;;;;;7.53;46.16;95927.38;10487188;28;20509;-77
2023/03/08 12:10:48;;;;;;;8.33;5.40;;;;;;;7.63;46.11;95904.94;10495896;28;20133;-77
2023/03/08 12:16:18;;;;;;;10.25;5.65;;;;;;;7.70;46.39;95895.53;10493032;28;20089;-77
2023/03/08 12:21:58;;;;;;;7.88;5.15;;;;;;;7.60;47.77;95890.22;10479852;28;20490;-77
2023/03/08 12:27:27;;;;;;;8.02;5.32;;;;;;;7.26;47.91;95877.41;10506406;28;20072;-77
2023/03/08 12:32:48;;;;;;;9.25;5.50;;;;;;;7.06;48.56;95863.97;10483472;28;20048;-78
2023/03/08 12:38:19;;;;;;;7.68;5.30;;;;;;;6.97;49.54;95887.06;10500109;28;20191;-76
2023/03/08 12:43:40;;;;;;;8.52;4.88;;;;;;;7.03;50.33;95876.28;10491425;28;20044;-77
2023/03/08 12:49:01;;;;;;;11.23;4.90;;;;;;;6.97;50.15;95886.38;10493183;28;20032;-77
2023/03/08 12:54:23;;;;;;;7.95;5.68;;;;;;;6.80;51.71;95863.31;10470467;28;20044;-75
2023/03/08 12:59:43;;;;;;;9.27;5.68;;;;;;;6.82;52.31;95851.63;10470194;28;20048;-77
2023/03/08 13:05:27;;;;;;;9.27;5.80;;;;;;;6.55;55.65;95846.75;10458640;28;20060;-78
2023/03/08 13:10:48;;;;;;;9.55;5.97;;;;;;;6.10;55.89;95854.78;10492455;28;20439;-76
2023/03/08 13:16:14;;;;;;;10.05;6.10;;;;;;;5.66;58.53;95853.72;10527617;28;20040;-76
2023/03/08 13:21:40;;;;;;;10.02;5.80;;;;;;;5.56;57.93;95847.63;10526559;28;20481;-78
2023/03/08 13:27:25;;;;;;;10.07;6.55;;;;;;;5.49;61.39;95846.56;10527797;28;20482;-79
2023/03/08 13:32:47;;;;;;;8.95;6.13;;;;;;;5.61;61.09;95824.38;10516141;28;20070;-79
2023/03/08 13:38:19;;;;;;;11.07;6.55;;;;;;;5.78;60.43;95826.69;10500639;28;20043;-79
2023/03/08 13:43:40;;;;;;;12.13;7.35;;;;;;;5.67;63.30;95797.75;10499415;28;20043;-78
2023/03/08 13:49:01;;;;;;;11.88;6.82;;;;;;;5.78;61.73;95796.25;10512586;28;20431;-79
2023/03/08 13:54:34;;;;;;;12.70;7.07;;;;;;;5.59;62.79;95780.69;10499095;28;20040;-78
2023/03/08 13:59:56;;;;;;;13.35;7.13;;;;;;;5.63;64.52;95780.94;10513089;28;20415;-79
2023/03/08 14:05:23;;;;;;;11.68;6.72;;;;;;;5.54;63.89;95787.34;10512620;28;20059;-79
2023/03/08 14:10:46;;;;;;;9.70;6.15;;;;;;;5.58;63.94;95781.31;10483978;28;20036;-79
2023/03/08 14:16:08;;;;;;;10.68;6.35;;;;;;;5.60;64.58;95762.06;10484806;28;20040;-79
2023/03/08 14:21:29;;;;;;;11.40;6.55;;;;;;;5.54;65.32;95758.94;10497633;28;20102;-79
2023/03/08 14:27:02;;;;;;;9.95;6.25;;;;;;;5.50;65.56;95764.25;10497318;28;20047;-79
2023/03/08 14:32:29;;;;;;;10.67;6.43;;;;;;;5.52;65.27;95767.16;10511810;28;20047;-79
2023/03/08 14:37:54;;;;;;;11.32;6.18;;;;;;;5.56;65.68;95761.81;10497383;28;20063;-79
2023/03/08 14:43:20;;;;;;;10.00;6.22;;;;;;;5.59;66.72;95760.59;10498690;28;20098;-79
2023/03/08 14:48:41;;;;;;;10.52;6.28;;;;;;;5.62;66.39;95740.03;10497572;28;20036;-79
2023/03/08 14:54:04;;;;;;;10.23;6.18;;;;;;;5.72;66.41;95721.19;10496795;28;20516;-80
2023/03/08 14:59:25;;;;;;;10.57;6.50;;;;;;;5.85;67.13;95708.69;10497203;28;20048;-80
2023/03/08 15:04:48;;;;;;;14.02;6.85;;;;;;;6.01;67.45;95710.31;10497275;28;20051;-78
2023/03/08 15:10:36;;;;;;;9.40;6.32;;;;;;;6.01;68.29;95704.75;10497117;28;20386;-80
2023/03/08 15:15:57;;;;;;;11.07;6.93;;;;;;;6.00;67.58;95711.63;10524227;28;20051;-80
2023/03/08 15:21:23;;;;;;;10.35;6.20;;;;;;;6.07;67.30;95707.13;10512267;28;20047;-80
2023/03/08 15:26:44;;;;;;;10.20;6.78;;;;;;;6.14;66.94;95688.78;10519088;28;20119;-79
2023/03/08 15:32:06;;;;;;;11.05;6.90;;;;;;;6.05;67.35;95682.09;10518083;28;20044;-79
2023/03/08 15:37:27;;;;;;;10.05;6.10;;;;;;;6.09;67.52;95678.81;10504437;28;20067;-80
2023/03/08 15:42:48;;;;;;;9.52;5.97;;;;;;;6.10;67.93;95666.41;10503733;28;20043;-80
2023/03/08 15:48:17;;;;;;;8.98;5.72;;;;;;;6.18;67.71;95667.53;10517281;28;20466;-80
2023/03/08 15:53:38;;;;;;;12.65;5.78;;;;;;;6.19;67.99;95668.25;10503915;28;20040;-79
2023/03/08 15:58:59;;;;;;;9.57;5.78;;;;;;;6.10;67.77;95661.59;10503869;28;20040;-79
2023/03/08 16:04:20;;;;;;;9.23;5.57;;;;;;;6.15;67.40;95665.97;10488746;28;20505;-80
2023/03/08 16:09:40;;;;;;;9.35;5.38;;;;;;;6.11;68.34;95657.47;10503263;28;20048;-80
2023/03/08 16:15:02;;;;;;;11.07;5.80;;;;;;;6.10;68.32;95660.88;10516486;28;20050;-80
2023/03/08 16:20:24;;;;;;;10.30;5.75;;;;;;;6.05;69.63;95646.09;10503300;28;20058;-80
2023/03/08 16:26:05;;;;;;;10.45;5.60;;;;;;;6.07;68.43;95651.72;10502674;28;20505;-78
2023/03/08 16:31:35;;;;;;;8.70;5.55;;;;;;;6.06;68.51;95644.03;10519466;28;20091;-78
2023/03/08 16:36:57;;;;;;;9.38;5.15;;;;;;;6.01;69.20;95635.53;10502522;28;20154;-79
2023/03/08 16:42:18;;;;;;;9.68;5.72;;;;;;;5.96;71.48;95633.16;10515072;28;20414;-77
2023/03/08 16:47:39;;;;;;;11.18;5.65;;;;;;;5.80;72.52;95627.50;10501533;28;20493;-76
2023/03/08 16:53:00;;;;;;;9.68;6.35;;;;;;;5.75;72.44;95629.31;10516965;28;20469;-77
2023/03/08 16:58:21;;;;;;;9.50;6.20;;;;;;;5.67;72.14;95631.66;10516994;28;20134;-76
2023/03/08 17:03:42;;;;;;;9.05;5.90;;;;;;;5.72;73.90;95629.84;10512662;28;20048;-76
2023/03/08 17:09:04;;;;;;;9.07;5.38;;;;;;;5.75;72.79;95617.53;10500706;28;20458;-76
2023/03/08 17:14:24;;;;;;;11.70;6.57;;;;;;;5.72;72.47;95613.22;10499963;28;20086;-73
2023/03/08 17:19:46;;;;;;;8.63;5.68;;;;;;;5.77;75.46;95603.06;10498707;28;20401;-72
2023/03/08 17:25:07;;;;;;;10.02;4.70;;;;;;;5.83;73.21;95617.22;10499628;28;20393;-74
2023/03/08 17:30:28;;;;;;;9.38;5.65;;;;;;;5.80;74.10;95616.41;10500320;28;20535;-74
2023/03/08 17:35:51;;;;;;;10.52;5.00;;;;;;;5.83;75.92;95611.69;10499203;28;20040;-76
2023/03/08 17:41:13;;;;;;;8.15;4.93;;;;;;;5.81;74.69;95606.06;10526095;28;20043;-76
2023/03/08 17:46:34;;;;;;;8.35;5.00;;;;;;;5.78;74.52;95616.28;10512284;28;20040;-76
2023/03/08 17:51:55;;;;;;;7.63;4.57;;;;;;;5.79;74.30;95609.44;10484812;28;20044;-74
2023/03/08 17:57:17;;;;;;;9.65;5.20;;;;;;;5.80;75.50;95608.13;10512180;28;20036;-74
2023/03/08 18:02:38;;;;;;;10.55;5.90;;;;;;;5.78;77.18;95590.66;10512237;28;20078;-77
2023/03/08 18:08:01;;;;;;;11.35;6.25;;;;;;;5.83;76.27;95595.81;10484684;28;20043;-75
2023/03/08 18:13:22;;;;;;;11.35;6.80;;;;;;;5.81;77.06;95581.84;10484076;28;20051;-75
2023/03/08 18:18:44;;;;;;;12.90;7.18;;;;;;;5.77;76.89;95580.91;10497914;28;20066;-75
2023/03/08 18:24:06;;;;;;;15.32;7.63;;;;;;;5.81;79.47;95581.13;10511974;28;20440;-75
2023/03/08 18:29:27;;;;;;;12.75;7.78;;;;;;;5.85;77.51;95578.56;10497469;28;20055;-75
2023/03/08 18:34:48;;;;;;;14.70;7.60;;;;;;;5.95;77.58;95581.88;10511001;28;20044;-75
2023/03/08 18:40:10;;;;;;;13.18;7.60;;;;;;;5.99;76.89;95579.31;10497421;28;20047;-75
2023/03/08 18:45:31;;;;;;;12.65;7.32;;;;;;;6.03;77.45;95574.69;10497627;28;20051;-75
2023/03/08 18:50:53;;;;;;;14.38;7.68;;;;;;;6.03;78.41;95585.06;10483313;28;20044;-75
2023/03/08 18:56:14;;;;;;;12.25;6.95;;;;;;;6.04;78.99;95586.50;10501117;28;20223;-74
2023/03/08 19:01:35;;;;;;;11.32;7.10;;;;;;;6.08;78.28;95581.16;10533222;28;20429;-74
2023/03/08 19:06:56;;;;;;;9.63;6.57;;;;;;;6.14;78.57;95595.31;10518821;28;20051;-74
2023/03/08 19:12:17;;;;;;;11.65;6.93;;;;;;;6.15;78.81;95588.41;10504768;28;20043;-74
2023/03/08 19:17:38;;;;;;;10.82;7.35;;;;;;;6.11;79.84;95579.94;10518686;28;20051;-74
2023/03/08 19:22:59;;;;;;;12.35;7.32;;;;;;;6.12;79.19;95581.34;10519008;28;20478;-74
2023/03/08 19:28:20;;;;;;;16.38;10.30;;;;;;;6.13;79.39;95582.06;10504302;28;20036;-75
2023/03/08 19:33:48;;;;;;;13.30;8.70;;;;;;;6.13;79.35;95576.53;10518303;28;20048;-74
2023/03/08 19:39:22;;;;;;;15.35;8.75;;;;;;;6.08;80.02;95575.63;10519840;28;20047;-75
2023/03/08 19:44:47;;;;;;;;;;;;;;;6.11;80.51;95573.66;10506038;28;20048;-76
2023/03/08 19:50:11;;;;;;;13.48;7.75;;;;;;;6.09;80.76;95571.53;10532047;28;19920;-76
2023/03/08 19:55:32;;;;;;;11.43;7.45;;;;;;;6.02;80.62;95559.41;10504229;28;20444;-76
2023/03/08 20:01:00;;;;;;;14.57;8.02;;;;;;;5.96;80.16;95555.63;10502802;28;20044;-76
2023/03/08 20:06:27;;;;;;;13.82;9.07;;;;;;;5.87;80.78;95556.50;10510739;28;20494;-80
2023/03/08 20:11:49;;;;;;;14.27;8.48;;;;;;;5.84;80.93;95547.41;10515443;28;20040;-77
2023/03/08 20:17:10;;;;;;;18.98;8.75;;;;;;;5.80;83.72;95555.50;10502995;28;20485;-76
2023/03/08 20:22:31;;;;;;;12.10;8.57;;;;;;;5.78;82.82;95555.38;10502240;28;20047;-77
2023/03/08 20:27:52;;;;;;;10.43;8.05;;;;;;;5.76;81.15;95555.28;10516171;28;20044;-77
2023/03/08 20:33:13;;;;;;;14.07;8.68;;;;;;;5.76;81.73;95555.28;10501816;28;20065;-77
2023/03/08 20:38:34;;;;;;;17.60;8.55;;;;;;;5.81;82.20;95559.00;10501728;28;20040;-77
2023/03/08 20:43:56;;;;;;;15.65;8.95;;;;;;;5.80;82.63;95552.03;10501554;28;20047;-77
2023/03/08 20:49:17;;;;;;;17.17;9.55;;;;;;;5.85;82.52;95554.38;10529234;28;20047;-77
2023/03/08 20:54:38;;;;;;;14.30;9.00;;;;;;;5.92;82.28;95552.66;10501268;28;20043;-76
2023/03/08 20:59:59;;;;;;;15.40;9.32;;;;;;;5.92;82.25;95545.06;10501367;28;20066;-77
2023/03/08 21:05:20;;;;;;;13.93;8.45;;;;;;;5.95;82.40;95545.88;10514716;28;20059;-76
2023/03/08 21:10:42;;;;;;;14.15;9.82;;;;;;;6.01;81.96;95543.41;10501980;28;20040;-76
2023/03/08 21:16:04;;;;;;;13.77;8.40;;;;;;;6.03;82.17;95552.53;10517371;28;20047;-76
2023/03/08 21:21:32;;;;;;;16.33;8.82;;;;;;;6.11;82.26;95532.13;10515006;28;20132;-77
2023/03/08 21:26:54;;;;;;;13.77;8.40;;;;;;;6.20;82.37;95536.72;10514745;28;20105;-76
2023/03/08 21:32:15;;;;;;;14.77;8.93;;;;;;;6.21;82.12;95541.63;10513132;28;20063;-76
2023/03/08 21:37:36;;;;;;;14.48;8.05;;;;;;;6.22;82.52;95523.69;10483398;28;20044;-76
2023/03/08 21:42:57;;;;;;;12.82;8.32;;;;;;;6.32;82.45;95526.94;10482620;28;20056;-75
2023/03/08 21:48:18;;;;;;;12.52;7.75;;;;;;;6.43;82.84;95519.81;10513476;28;20078;-76
2023/03/08 21:53:39;;;;;;;12.23;7.63;;;;;;;6.49;82.49;95511.09;10500189;28;20101;-76
2023/03/08 21:59:00;;;;;;;10.60;7.32;;;;;;;6.49;82.60;95500.72;10511799;28;20051;-76
2023/03/08 22:04:21;;;;;;;9.55;5.95;;;;;;;6.52;82.31;95493.91;10511799;28;20071;-76
2023/03/08 22:09:43;;;;;;;8.13;5.15;;;;;;;6.58;83.11;95491.44;10512486;28;20036;-76
2023/03/08 22:15:07;;;;;;;7.28;4.75;;;;;;;6.65;83.20;95495.19;10527012;28;20432;-76
2023/03/08 22:20:27;;;;;;;6.90;4.50;;;;;;;6.69;82.98;95480.81;10458311;28;20506;-76
2023/03/08 22:25:48;;;;;;;6.55;4.38;;;;;;;6.73;83.85;95489.31;10468258;28;20397;-75
2023/03/08 22:31:10;;;;;;;9.10;5.05;;;;;;;6.79;84.46;95492.38;10455442;28;20052;-76
2023/03/08 22:36:31;;;;;;;8.10;4.38;;;;;;;6.86;84.67;95488.53;10469915;28;20044;-76
2023/03/08 22:41:53;;;;;;;7.25;4.07;;;;;;;6.94;85.03;95480.56;10442070;28;20113;-76
2023/03/08 22:47:14;;;;;;;5.15;2.55;;;;;;;7.00;84.96;95472.53;10455671;28;20036;-76
2023/03/08 22:52:35;;;;;;;4.05;2.70;;;;;;;7.08;85.92;95475.66;10455431;28;20045;-76
2023/03/08 22:57:56;;;;;;;4.07;2.17;;;;;;;7.14;85.58;95478.72;10455546;28;20041;-76
2023/03/08 23:03:17;;;;;;;4.82;1.98;;;;;;;7.23;86.86;95477.00;10441402;28;20091;-76
2023/03/08 23:08:38;;;;;;;3.30;2.17;;;;;;;7.25;86.52;95473.59;10469080;28;20040;-76
2023/03/08 23:13:59;;;;;;;4.32;2.00;;;;;;;7.27;86.68;95473.69;10468976;28;20040;-76
2023/03/08 23:19:20;;;;;;;3.72;2.30;;;;;;;7.31;86.61;95468.31;10455575;28;20048;-75
2023/03/08 23:24:42;;;;;;;3.20;1.85;;;;;;;7.29;85.93;95479.31;10441169;28;20108;-76
2023/03/08 23:30:04;;;;;;;3.90;1.80;;;;;;;7.31;85.85;95482.19;10468220;28;20041;-76
2023/03/08 23:35:25;;;;;;;3.83;1.48;;;;;;;7.32;85.89;95473.22;10468394;28;20045;-76
2023/03/08 23:40:46;;;;;;;3.20;1.52;;;;;;;7.34;86.45;95476.09;10440619;28;20046;-76
2023/03/08 23:46:09;;;;;;;2.53;1.55;;;;;;;7.31;86.58;95466.25;10490063;28;20045;-76
2023/03/08 23:51:31;;;;;;;2.63;1.70;;;;;;;7.33;87.21;95468.38;10475893;28;20086;-76
2023/03/08 23:56:52;;;;;;;2.30;1.30;;;;;;;7.29;87.19;95457.13;10475616;28;20474;-76
